sensor_id;sensor_type;location;lat;lon;timestamp;pressure;altitude;pressure_sealevel;temperature;humidity
19797;BME280;10058;57.654;12.044;2023-01-26T00:01:20;101243.13;;;7.20;100.00
19797;BME280;10058;57.654;12.044;2023-01-26T00:03:45;101244.13;;;7.22;100.00
19797;BME280;10058;57.654;12.044;2023-01-26T00:06:12;101248.56;;;7.23;100.00
19797;BME280;10058;57.654;12.044;2023-01-26T00:08:38;101250.34;;;7.24;100.00
19797;BME280;10058;57.654;12.044;2023-01-26T00:11:04;101255.69;;;7.25;100.00
19797;BME280;10058;57.654;12.044;2023-01-26T00:13:29;101247.88;;;7.27;100.00
19797;BME280;10058;57.654;12.044;2023-01-26T00:15:55;101252.44;;;7.31;100.00
19797;BME280;10058;57.654;12.044;2023-01-26T00:18:20;101256.94;;;7.33;100.00
19797;BME280;10058;57.654;12.044;2023-01-26T00:20:45;101247.47;;;7.37;100.00
19797;BME280;10058;57.654;12.044;2023-01-26T00:23:10;101245.25;;;7.27;100.00
19797;BME280;10058;57.654;12.044;2023-01-26T00:25:36;101250.50;;;7.27;100.00
19797;BME280;10058;57.654;12.044;2023-01-26T00:28:02;101241.75;;;7.28;100.00
19797;BME280;10058;57.654;12.044;2023-01-26T00:30:27;101239.59;;;7.37;100.00
19797;BME280;10058;57.654;12.044;2023-01-26T00:32:52;101238.47;;;7.32;100.00
19797;BME280;10058;57.654;12.044;2023-01-26T00:35:17;101240.56;;;7.39;100.00
19797;BME280;10058;57.654;12.044;2023-01-26T00:37:42;101237.13;;;7.40;100.00
19797;BME280;10058;57.654;12.044;2023-01-26T00:40:08;101238.91;;;7.41;100.00
19797;BME280;10058;57.654;12.044;2023-01-26T00:42:34;101236.22;;;7.40;100.00
19797;BME280;10058;57.654;12.044;2023-01-26T00:44:59;101240.72;;;7.42;100.00
19797;BME280;10058;57.654;12.044;2023-01-26T00:47:24;101243.50;;;7.27;100.00
19797;BME280;10058;57.654;12.044;2023-01-26T00:49:49;101248.81;;;7.29;100.00
19797;BME280;10058;57.654;12.044;2023-01-26T00:52:14;101259.81;;;7.38;100.00
19797;BME280;10058;57.654;12.044;2023-01-26T00:54:39;101258.22;;;7.42;100.00
19797;BME280;10058;57.654;12.044;2023-01-26T00:57:05;101257.59;;;7.47;100.00
19797;BME280;10058;57.654;12.044;2023-01-26T00:59:30;101249.72;;;7.47;100.00
19797;BME280;10058;57.654;12.044;2023-01-26T01:01:56;101258.44;;;7.46;100.00
19797;BME280;10058;57.654;12.044;2023-01-26T01:04:22;101247.78;;;7.43;100.00
19797;BME280;10058;57.654;12.044;2023-01-26T01:06:47;101241.88;;;7.49;100.00
19797;BME280;10058;57.654;12.044;2023-01-26T01:09:12;101240.16;;;7.49;100.00
19797;BME280;10058;57.654;12.044;2023-01-26T01:11:37;101233.94;;;7.47;100.00
19797;BME280;10058;57.654;12.044;2023-01-26T01:14:03;101218.44;;;7.53;100.00
19797;BME280;10058;57.654;12.044;2023-01-26T01:16:28;101228.97;;;7.53;100.00
19797;BME280;10058;57.654;12.044;2023-01-26T01:18:54;101217.69;;;7.56;100.00
19797;BME280;10058;57.654;12.044;2023-01-26T01:21:20;101215.00;;;7.54;100.00
19797;BME280;10058;57.654;12.044;2023-01-26T01:23:45;101223.84;;;7.56;100.00
19797;BME280;10058;57.654;12.044;2023-01-26T01:26:11;101232.72;;;7.58;100.00
19797;BME280;10058;57.654;12.044;2023-01-26T01:28:37;101239.78;;;7.59;100.00
19797;BME280;10058;57.654;12.044;2023-01-26T01:31:06;101231.19;;;7.63;100.00
19797;BME280;10058;57.654;12.044;2023-01-26T01:33:32;101241.72;;;7.63;100.00
19797;BME280;10058;57.654;12.044;2023-01-26T01:35:58;101243.66;;;7.67;100.00
19797;BME280;10058;57.654;12.044;2023-01-26T01:38:23;101245.03;;;7.59;100.00
19797;BME280;10058;57.654;12.044;2023-01-26T01:40:49;101244.91;;;7.56;100.00
19797;BME280;10058;57.654;12.044;2023-01-26T01:43:14;101233.75;;;7.62;100.00
19797;BME280;10058;57.654;12.044;2023-01-26T01:45:40;101228.97;;;7.53;100.00
19797;BME280;10058;57.654;12.044;2023-01-26T01:48:06;101232.72;;;7.58;100.00
19797;BME280;10058;57.654;12.044;2023-01-26T01:50:36;101232.56;;;7.55;100.00
19797;BME280;10058;57.654;12.044;2023-01-26T01:53:03;101218.75;;;7.59;100.00
19797;BME280;10058;57.654;12.044;2023-01-26T01:55:29;101224.75;;;7.57;100.00
19797;BME280;10058;57.654;12.044;2023-01-26T01:57:56;101220.94;;;7.50;100.00
19797;BME280;10058;57.654;12.044;2023-01-26T02:00:24;101224.59;;;7.54;100.00
19797;BME280;10058;57.654;12.044;2023-01-26T02:02:53;101226.88;;;7.46;100.00
19797;BME280;10058;57.654;12.044;2023-01-26T02:05:53;101232.03;;;7.45;100.00
19797;BME280;10058;57.654;12.044;2023-01-26T02:08:21;101227.66;;;7.44;100.00
19797;BME280;10058;57.654;12.044;2023-01-26T02:10:48;101227.75;;;7.47;100.00
19797;BME280;10058;57.654;12.044;2023-01-26T02:13:14;101218.84;;;7.43;100.00
19797;BME280;10058;57.654;12.044;2023-01-26T02:15:40;101226.59;;;7.40;100.00
19797;BME280;10058;57.654;12.044;2023-01-26T02:18:05;101221.03;;;7.34;100.00
19797;BME280;10058;57.654;12.044;2023-01-26T02:20:36;101219.81;;;7.27;100.00
19797;BME280;10058;57.654;12.044;2023-01-26T02:28:14;101217.16;;;7.26;100.00
19797;BME280;10058;57.654;12.044;2023-01-26T02:30:39;101215.19;;;7.22;100.00
19797;BME280;10058;57.654;12.044;2023-01-26T02:33:04;101221.34;;;7.22;100.00
19797;BME280;10058;57.654;12.044;2023-01-26T02:35:30;101211.94;;;7.27;100.00
19797;BME280;10058;57.654;12.044;2023-01-26T02:37:55;101218.50;;;7.18;100.00
19797;BME280;10058;57.654;12.044;2023-01-26T02:40:24;101223.59;;;7.15;100.00
19797;BME280;10058;57.654;12.044;2023-01-26T02:42:54;101209.94;;;7.22;100.00
19797;BME280;10058;57.654;12.044;2023-01-26T02:45:19;101214.63;;;7.10;100.00
19797;BME280;10058;57.654;12.044;2023-01-26T02:47:44;101215.19;;;7.22;100.00
19797;BME280;10058;57.654;12.044;2023-01-26T02:50:10;101210.09;;;7.25;100.00
19797;BME280;10058;57.654;12.044;2023-01-26T02:52:35;101211.44;;;7.17;100.00
19797;BME280;10058;57.654;12.044;2023-01-26T02:55:01;101220.16;;;7.16;100.00
19797;BME280;10058;57.654;12.044;2023-01-26T02:57:45;101223.44;;;7.12;100.00
19797;BME280;10058;57.654;12.044;2023-01-26T03:00:16;101225.13;;;7.10;100.00
19797;BME280;10058;57.654;12.044;2023-01-26T03:02:42;101221.06;;;6.98;100.00
19797;BME280;10058;57.654;12.044;2023-01-26T03:05:08;101228.13;;;6.99;100.00
19797;BME280;10058;57.654;12.044;2023-01-26T03:07:33;101227.69;;;6.90;100.00
19797;BME280;10058;57.654;12.044;2023-01-26T03:09:58;101231.28;;;6.92;100.00
19797;BME280;10058;57.654;12.044;2023-01-26T03:12:24;101215.66;;;6.95;100.00
19797;BME280;10058;57.654;12.044;2023-01-26T03:14:49;101209.88;;;6.85;100.00
19797;BME280;10058;57.654;12.044;2023-01-26T03:17:34;101218.06;;;6.73;100.00
19797;BME280;10058;57.654;12.044;2023-01-26T03:19:59;101226.44;;;6.66;100.00
19797;BME280;10058;57.654;12.044;2023-01-26T03:22:43;101211.88;;;6.55;100.00
19797;BME280;10058;57.654;12.044;2023-01-26T03:25:27;101217.63;;;6.48;100.00
19797;BME280;10058;57.654;12.044;2023-01-26T03:28:11;101226.69;;;6.37;100.00
19797;BME280;10058;57.654;12.044;2023-01-26T03:30:37;101226.81;;;6.22;100.00
19797;BME280;10058;57.654;12.044;2023-01-26T03:33:02;101229.50;;;6.23;100.00
19797;BME280;10058;57.654;12.044;2023-01-26T03:35:28;101232.47;;;6.13;100.00
19797;BME280;10058;57.654;12.044;2023-01-26T03:37:53;101226.59;;;6.01;100.00
19797;BME280;10058;57.654;12.044;2023-01-26T03:40:18;101228.94;;;5.97;100.00
19797;BME280;10058;57.654;12.044;2023-01-26T03:43:06;101230.28;;;5.88;100.00
19797;BME280;10058;57.654;12.044;2023-01-26T03:45:49;101235.56;;;5.74;100.00
19797;BME280;10058;57.654;12.044;2023-01-26T03:48:33;101234.56;;;5.72;100.00
19797;BME280;10058;57.654;12.044;2023-01-26T03:51:17;101243.41;;;5.74;100.00
19797;BME280;10058;57.654;12.044;2023-01-26T03:54:01;101241.22;;;5.65;100.00
19797;BME280;10058;57.654;12.044;2023-01-26T03:56:45;101243.03;;;5.66;100.00
19797;BME280;10058;57.654;12.044;2023-01-26T03:59:11;101241.59;;;5.56;100.00
19797;BME280;10058;57.654;12.044;2023-01-26T04:01:43;101239.47;;;5.49;100.00
19797;BME280;10058;57.654;12.044;2023-01-26T04:04:27;101251.41;;;5.44;100.00
19797;BME280;10058;57.654;12.044;2023-01-26T04:07:11;101252.97;;;5.41;100.00
19797;BME280;10058;57.654;12.044;2023-01-26T04:09:55;101253.03;;;5.42;100.00
19797;BME280;10058;57.654;12.044;2023-01-26T04:12:20;101249.44;;;5.40;100.00
19797;BME280;10058;57.654;12.044;2023-01-26T04:14:45;101246.63;;;5.37;100.00
19797;BME280;10058;57.654;12.044;2023-01-26T04:17:29;101242.63;;;5.28;100.00
19797;BME280;10058;57.654;12.044;2023-01-26T04:20:13;101248.25;;;5.19;100.00
19797;BME280;10058;57.654;12.044;2023-01-26T04:22:57;101244.28;;;5.11;100.00
19797;BME280;10058;57.654;12.044;2023-01-26T04:25:22;101249.81;;;5.01;100.00
19797;BME280;10058;57.654;12.044;2023-01-26T04:27:47;101254.63;;;4.93;100.00
19797;BME280;10058;57.654;12.044;2023-01-26T04:30:13;101242.88;;;4.86;100.00
19797;BME280;10058;57.654;12.044;2023-01-26T04:32:39;101242.63;;;4.82;100.00
19797;BME280;10058;57.654;12.044;2023-01-26T04:35:04;101248.31;;;4.75;100.00
19797;BME280;10058;57.654;12.044;2023-01-26T04:37:30;101250.13;;;4.61;100.00
19797;BME280;10058;57.654;12.044;2023-01-26T04:39:55;101251.94;;;4.62;100.00
19797;BME280;10058;57.654;12.044;2023-01-26T04:42:21;101263.31;;;4.48;100.00
19797;BME280;10058;57.654;12.044;2023-01-26T04:44:48;101269.59;;;4.37;100.00
19797;BME280;10058;57.654;12.044;2023-01-26T04:47:14;101269.38;;;4.19;100.00
19797;BME280;10058;57.654;12.044;2023-01-26T04:49:39;101269.75;;;4.10;100.00
19797;BME280;10058;57.654;12.044;2023-01-26T04:52:04;101254.72;;;3.93;100.00
19797;BME280;10058;57.654;12.044;2023-01-26T04:54:29;101262.78;;;3.96;100.00
19797;BME280;10058;57.654;12.044;2023-01-26T04:56:54;101270.44;;;3.93;100.00
19797;BME280;10058;57.654;12.044;2023-01-26T04:59:20;101276.88;;;3.85;100.00
19797;BME280;10058;57.654;12.044;2023-01-26T05:01:45;101269.84;;;3.84;100.00
19797;BME280;10058;57.654;12.044;2023-01-26T05:04:10;101275.88;;;3.83;100.00
19797;BME280;10058;57.654;12.044;2023-01-26T05:06:36;101264.81;;;3.87;100.00
19797;BME280;10058;57.654;12.044;2023-01-26T05:09:02;101265.50;;;3.84;100.00
19797;BME280;10058;57.654;12.044;2023-01-26T05:11:28;101265.31;;;3.81;100.00
19797;BME280;10058;57.654;12.044;2023-01-26T05:13:53;101272.19;;;3.79;100.00
19797;BME280;10058;57.654;12.044;2023-01-26T05:16:18;101280.28;;;3.84;100.00
19797;BME280;10058;57.654;12.044;2023-01-26T05:18:43;101295.22;;;3.72;100.00
19797;BME280;10058;57.654;12.044;2023-01-26T05:21:09;101300.25;;;3.69;100.00
19797;BME280;10058;57.654;12.044;2023-01-26T05:23:34;101297.19;;;3.61;100.00
19797;BME280;10058;57.654;12.044;2023-01-26T05:25:59;101295.16;;;3.57;100.00
19797;BME280;10058;57.654;12.044;2023-01-26T05:28:25;101305.91;;;3.48;100.00
19797;BME280;10058;57.654;12.044;2023-01-26T05:30:50;101302.63;;;3.38;100.00
19797;BME280;10058;57.654;12.044;2023-01-26T05:33:15;101305.53;;;3.42;100.00
19797;BME280;10058;57.654;12.044;2023-01-26T05:35:41;101304.75;;;3.43;100.00
19797;BME280;10058;57.654;12.044;2023-01-26T05:38:06;101302.13;;;3.43;100.00
19797;BME280;10058;57.654;12.044;2023-01-26T05:40:31;101303.50;;;3.52;100.00
19797;BME280;10058;57.654;12.044;2023-01-26T05:42:57;101313.34;;;3.56;100.00
19797;BME280;10058;57.654;12.044;2023-01-26T05:45:22;101323.13;;;3.58;100.00
19797;BME280;10058;57.654;12.044;2023-01-26T05:47:47;101320.81;;;3.36;100.00
19797;BME280;10058;57.654;12.044;2023-01-26T05:50:13;101317.59;;;3.40;100.00
19797;BME280;10058;57.654;12.044;2023-01-26T05:52:38;101319.72;;;3.33;100.00
19797;BME280;10058;57.654;12.044;2023-01-26T05:55:04;101315.97;;;3.29;100.00
19797;BME280;10058;57.654;12.044;2023-01-26T05:57:29;101329.47;;;3.22;100.00
19797;BME280;10058;57.654;12.044;2023-01-26T05:59:55;101338.63;;;3.29;100.00
19797;BME280;10058;57.654;12.044;2023-01-26T06:02:20;101327.28;;;3.28;100.00
19797;BME280;10058;57.654;12.044;2023-01-26T06:04:45;101337.72;;;3.28;100.00
19797;BME280;10058;57.654;12.044;2023-01-26T06:07:10;101339.91;;;3.35;100.00
19797;BME280;10058;57.654;12.044;2023-01-26T06:09:37;101339.31;;;3.26;100.00
19797;BME280;10058;57.654;12.044;2023-01-26T06:12:03;101341.22;;;3.15;100.00
19797;BME280;10058;57.654;12.044;2023-01-26T06:14:28;101352.34;;;3.13;100.00
19797;BME280;10058;57.654;12.044;2023-01-26T06:16:53;101348.34;;;3.18;100.00
19797;BME280;10058;57.654;12.044;2023-01-26T06:19:20;101351.47;;;3.26;100.00
19797;BME280;10058;57.654;12.044;2023-01-26T06:21:45;101361.81;;;3.24;100.00
19797;BME280;10058;57.654;12.044;2023-01-26T17:26:27;102094.91;;;2.35;100.00
19797;BME280;10058;57.654;12.044;2023-01-26T17:28:53;102102.28;;;2.51;100.00
19797;BME280;10058;57.654;12.044;2023-01-26T17:31:19;102093.34;;;2.37;100.00
19797;BME280;10058;57.654;12.044;2023-01-26T17:33:46;102097.31;;;2.22;100.00
19797;BME280;10058;57.654;12.044;2023-01-26T17:36:11;102114.81;;;2.44;100.00
19797;BME280;10058;57.654;12.044;2023-01-26T17:38:36;102111.28;;;2.44;100.00
19797;BME280;10058;57.654;12.044;2023-01-26T17:41:02;102115.00;;;2.36;100.00
19797;BME280;10058;57.654;12.044;2023-01-26T17:43:28;102119.94;;;2.33;100.00
19797;BME280;10058;57.654;12.044;2023-01-26T17:46:00;102114.59;;;2.31;100.00
19797;BME280;10058;57.654;12.044;2023-01-26T17:48:26;102114.00;;;2.24;100.00
19797;BME280;10058;57.654;12.044;2023-01-26T17:50:51;102115.56;;;2.12;100.00
19797;BME280;10058;57.654;12.044;2023-01-26T17:53:16;102128.19;;;2.27;100.00
19797;BME280;10058;57.654;12.044;2023-01-26T17:55:42;102124.97;;;2.20;100.00
19797;BME280;10058;57.654;12.044;2023-01-26T17:58:07;102131.78;;;2.07;100.00
19797;BME280;10058;57.654;12.044;2023-01-26T18:00:35;102128.63;;;2.12;100.00
19797;BME280;10058;57.654;12.044;2023-01-26T18:03:00;102135.03;;;2.05;100.00
19797;BME280;10058;57.654;12.044;2023-01-26T18:05:26;102129.41;;;2.10;100.00
19797;BME280;10058;57.654;12.044;2023-01-26T18:07:54;102144.28;;;2.01;100.00
19797;BME280;10058;57.654;12.044;2023-01-26T18:10:19;102148.47;;;1.99;100.00
19797;BME280;10058;57.654;12.044;2023-01-26T18:12:45;102157.84;;;2.07;100.00
19797;BME280;10058;57.654;12.044;2023-01-26T18:15:10;102163.97;;;1.98;100.00
19797;BME280;10058;57.654;12.044;2023-01-26T18:17:35;102115.66;;;1.71;100.00
19797;BME280;10058;57.654;12.044;2023-01-26T18:20:01;102169.34;;;1.89;100.00
19797;BME280;10058;57.654;12.044;2023-01-26T18:22:26;102180.53;;;1.98;100.00
19797;BME280;10058;57.654;12.044;2023-01-26T18:24:51;102181.84;;;1.93;100.00
19797;BME280;10058;57.654;12.044;2023-01-26T18:27:17;102196.34;;;1.90;100.00
19797;BME280;10058;57.654;12.044;2023-01-26T18:29:42;102195.66;;;1.92;100.00
19797;BME280;10058;57.654;12.044;2023-01-26T18:32:07;102194.09;;;1.94;100.00
19797;BME280;10058;57.654;12.044;2023-01-26T18:34:32;102181.59;;;1.90;100.00
19797;BME280;10058;57.654;12.044;2023-01-26T18:36:57;102189.66;;;1.93;100.00
19797;BME280;10058;57.654;12.044;2023-01-26T18:39:23;102192.25;;;1.93;100.00
19797;BME280;10058;57.654;12.044;2023-01-26T18:41:48;102194.50;;;1.79;100.00
19797;BME280;10058;57.654;12.044;2023-01-26T18:44:13;102200.88;;;1.82;100.00
19797;BME280;10058;57.654;12.044;2023-01-26T18:46:38;102199.84;;;1.80;100.00
19797;BME280;10058;57.654;12.044;2023-01-26T18:49:03;102203.88;;;1.77;100.00
19797;BME280;10058;57.654;12.044;2023-01-26T18:51:30;102207.94;;;1.73;100.00
19797;BME280;10058;57.654;12.044;2023-01-26T18:53:55;102206.88;;;1.81;100.00
19797;BME280;10058;57.654;12.044;2023-01-26T18:56:21;102201.81;;;1.72;100.00
19797;BME280;10058;57.654;12.044;2023-01-26T18:58:46;102197.63;;;1.74;100.00
19797;BME280;10058;57.654;12.044;2023-01-26T19:01:13;102197.13;;;1.68;100.00
19797;BME280;10058;57.654;12.044;2023-01-26T19:03:39;102201.13;;;1.75;100.00
19797;BME280;10058;57.654;12.044;2023-01-26T19:06:11;102203.63;;;1.63;100.00
19797;BME280;10058;57.654;12.044;2023-01-26T19:08:37;102210.25;;;1.60;100.00
19797;BME280;10058;57.654;12.044;2023-01-26T19:11:04;102216.25;;;1.59;100.00
19797;BME280;10058;57.654;12.044;2023-01-26T19:13:29;102228.75;;;1.53;100.00
19797;BME280;10058;57.654;12.044;2023-01-26T19:15:54;102225.38;;;1.64;100.00
19797;BME280;10058;57.654;12.044;2023-01-26T19:18:20;102230.09;;;1.68;100.00
19797;BME280;10058;57.654;12.044;2023-01-26T19:20:53;102235.81;;;1.54;100.00
19797;BME280;10058;57.654;12.044;2023-01-26T19:23:18;102232.94;;;1.61;100.00
19797;BME280;10058;57.654;12.044;2023-01-26T19:25:43;102234.25;;;1.56;100.00
19797;BME280;10058;57.654;12.044;2023-01-26T19:28:08;102229.03;;;1.56;100.00
19797;BME280;10058;57.654;12.044;2023-01-26T19:30:34;102231.59;;;1.46;100.00
19797;BME280;10058;57.654;12.044;2023-01-26T19:32:59;102241.09;;;1.45;100.00
19797;BME280;10058;57.654;12.044;2023-01-26T19:35:43;102235.91;;;1.45;100.00
19797;BME280;10058;57.654;12.044;2023-01-26T19:38:09;102251.31;;;1.52;100.00
19797;BME280;10058;57.654;12.044;2023-01-26T19:40:34;102247.78;;;1.52;100.00
19797;BME280;10058;57.654;12.044;2023-01-26T19:42:59;102256.88;;;1.57;100.00
19797;BME280;10058;57.654;12.044;2023-01-26T19:45:25;102253.53;;;1.68;100.00
19797;BME280;10058;57.654;12.044;2023-01-26T19:47:50;102262.38;;;1.60;100.00
19797;BME280;10058;57.654;12.044;2023-01-26T19:50:15;102264.69;;;1.57;100.00
19797;BME280;10058;57.654;12.044;2023-01-26T19:52:41;102278.00;;;1.60;100.00
19797;BME280;10058;57.654;12.044;2023-01-26T19:55:06;102216.84;;;1.26;100.00
19797;BME280;10058;57.654;12.044;2023-01-26T19:57:31;102269.91;;;1.47;100.00
19797;BME280;10058;57.654;12.044;2023-01-26T19:59:57;102279.84;;;1.61;100.00
19797;BME280;10058;57.654;12.044;2023-01-26T20:02:22;102279.56;;;1.58;100.00
19797;BME280;10058;57.654;12.044;2023-01-26T20:04:47;102271.97;;;1.40;100.00
19797;BME280;10058;57.654;12.044;2023-01-26T20:07:12;102275.66;;;1.53;100.00
19797;BME280;10058;57.654;12.044;2023-01-26T20:09:37;102286.31;;;1.35;100.00
19797;BME280;10058;57.654;12.044;2023-01-26T20:12:04;102293.50;;;1.48;100.00
19797;BME280;10058;57.654;12.044;2023-01-26T20:14:31;102292.56;;;1.48;100.00
19797;BME280;10058;57.654;12.044;2023-01-26T20:16:56;102288.16;;;1.47;100.00
19797;BME280;10058;57.654;12.044;2023-01-26T20:19:21;102291.03;;;1.50;100.00
19797;BME280;10058;57.654;12.044;2023-01-26T20:21:46;102288.84;;;1.54;100.00
19797;BME280;10058;57.654;12.044;2023-01-26T20:24:12;102288.38;;;1.39;100.00
19797;BME280;10058;57.654;12.044;2023-01-26T20:26:38;102294.78;;;1.43;100.00
19797;BME280;10058;57.654;12.044;2023-01-26T20:29:03;102300.38;;;1.37;100.00
19797;BME280;10058;57.654;12.044;2023-01-26T20:31:28;102305.44;;;1.36;100.00
19797;BME280;10058;57.654;12.044;2023-01-26T20:33:54;102297.50;;;1.45;100.00
19797;BME280;10058;57.654;12.044;2023-01-26T20:36:21;102301.81;;;1.44;100.00
19797;BME280;10058;57.654;12.044;2023-01-26T20:38:47;102302.44;;;1.42;100.00
19797;BME280;10058;57.654;12.044;2023-01-26T20:41:13;102304.75;;;1.28;100.00
19797;BME280;10058;57.654;12.044;2023-01-26T20:43:39;102299.53;;;1.28;100.00
19797;BME280;10058;57.654;12.044;2023-01-26T20:46:08;102299.00;;;1.22;100.00
19797;BME280;10058;57.654;12.044;2023-01-26T20:48:34;102296.44;;;1.32;100.00
19797;BME280;10058;57.654;12.044;2023-01-26T20:51:00;102300.47;;;1.29;100.00
19797;BME280;10058;57.654;12.044;2023-01-26T20:53:26;102290.31;;;1.32;100.00
19797;BME280;10058;57.654;12.044;2023-01-26T20:55:57;102308.13;;;1.27;100.00
19797;BME280;10058;57.654;12.044;2023-01-26T20:58:23;102316.19;;;1.20;100.00
19797;BME280;10058;57.654;12.044;2023-01-26T21:00:48;102319.56;;;1.19;100.00
19797;BME280;10058;57.654;12.044;2023-01-26T21:03:14;102324.50;;;1.16;100.00
19797;BME280;10058;57.654;12.044;2023-01-26T21:05:39;102325.53;;;0.89;100.00
19797;BME280;10058;57.654;12.044;2023-01-26T21:08:04;102327.44;;;0.82;100.00
19797;BME280;10058;57.654;12.044;2023-01-26T21:10:29;102334.25;;;0.90;100.00
19797;BME280;10058;57.654;12.044;2023-01-26T21:12:54;102325.13;;;0.85;100.00
19797;BME280;10058;57.654;12.044;2023-01-26T21:15:20;102326.66;;;0.83;100.00
19797;BME280;10058;57.654;12.044;2023-01-26T21:17:45;102331.03;;;0.74;100.00
19797;BME280;10058;57.654;12.044;2023-01-26T21:20:11;102328.50;;;0.84;100.00
19797;BME280;10058;57.654;12.044;2023-01-26T21:22:36;102321.19;;;0.80;100.00
19797;BME280;10058;57.654;12.044;2023-01-26T21:25:01;102321.75;;;0.86;100.00
19797;BME280;10058;57.654;12.044;2023-01-26T21:27:27;102317.66;;;0.60;100.00
19797;BME280;10058;57.654;12.044;2023-01-26T21:29:53;102328.38;;;0.63;100.00
19797;BME280;10058;57.654;12.044;2023-01-26T21:32:18;102329.63;;;0.58;100.00
19797;BME280;10058;57.654;12.044;2023-01-26T21:34:43;102336.66;;;0.59;100.00
19797;BME280;10058;57.654;12.044;2023-01-26T21:37:08;102341.53;;;0.65;100.00
19797;BME280;10058;57.654;12.044;2023-01-26T21:39:34;102345.22;;;0.58;100.00
19797;BME280;10058;57.654;12.044;2023-01-26T21:41:59;102344.94;;;0.55;100.00
19797;BME280;10058;57.654;12.044;2023-01-26T21:44:25;102339.06;;;0.66;100.00
19797;BME280;10058;57.654;12.044;2023-01-26T21:47:01;102346.34;;;0.70;100.00
19797;BME280;10058;57.654;12.044;2023-01-26T21:49:27;102347.06;;;0.59;100.00
19797;BME280;10058;57.654;12.044;2023-01-26T21:51:53;102353.13;;;0.68;100.00
19797;BME280;10058;57.654;12.044;2023-01-26T21:54:37;102343.22;;;0.64;100.00
19797;BME280;10058;57.654;12.044;2023-01-26T21:57:03;102345.81;;;0.64;100.00
19797;BME280;10058;57.654;12.044;2023-01-26T21:59:28;102344.53;;;0.69;100.00
19797;BME280;10058;57.654;12.044;2023-01-26T22:01:55;102349.81;;;0.61;100.00
19797;BME280;10058;57.654;12.044;2023-01-26T22:06:46;102359.88;;;0.66;100.00
19797;BME280;10058;57.654;12.044;2023-01-26T22:09:13;102353.38;;;0.72;100.00
19797;BME280;10058;57.654;12.044;2023-01-26T22:11:39;102350.56;;;0.60;100.00
19797;BME280;10058;57.654;12.044;2023-01-26T22:14:05;102362.88;;;0.52;100.00
19797;BME280;10058;57.654;12.044;2023-01-26T22:16:30;102372.44;;;0.43;100.00
19797;BME280;10058;57.654;12.044;2023-01-26T22:18:55;102357.59;;;0.42;100.00
19797;BME280;10058;57.654;12.044;2023-01-26T22:21:21;102357.31;;;0.39;100.00
19797;BME280;10058;57.654;12.044;2023-01-26T22:23:46;102357.72;;;0.25;100.00
19797;BME280;10058;57.654;12.044;2023-01-26T22:26:15;102365.94;;;0.29;100.00
19797;BME280;10058;57.654;12.044;2023-01-26T22:28:41;102365.06;;;0.20;100.00
19797;BME280;10058;57.654;12.044;2023-01-26T22:31:08;102368.69;;;0.31;100.00
19797;BME280;10058;57.654;12.044;2023-01-26T22:33:33;102384.59;;;0.34;100.00
19797;BME280;10058;57.654;12.044;2023-01-26T22:36:00;102385.16;;;0.40;100.00
19797;BME280;10058;57.654;12.044;2023-01-26T22:38:25;102386.91;;;0.31;100.00
19797;BME280;10058;57.654;12.044;2023-01-26T22:40:51;102384.63;;;0.25;100.00
19797;BME280;10058;57.654;12.044;2023-01-26T22:43:16;102386.47;;;0.26;100.00
19797;BME280;10058;57.654;12.044;2023-01-26T22:45:41;102387.06;;;0.24;100.00
19797;BME280;10058;57.654;12.044;2023-01-26T22:48:06;102386.09;;;0.05;100.00
19797;BME280;10058;57.654;12.044;2023-01-26T22:50:31;102389.50;;;0.31;100.00
19797;BME280;10058;57.654;12.044;2023-01-26T22:52:57;102393.78;;;0.30;100.00
19797;BME280;10058;57.654;12.044;2023-01-26T22:55:22;102394.00;;;0.42;100.00
19797;BME280;10058;57.654;12.044;2023-01-26T22:57:47;102388.81;;;0.42;100.00
19797;BME280;10058;57.654;12.044;2023-01-26T23:00:12;102401.75;;;0.32;100.00
19797;BME280;10058;57.654;12.044;2023-01-26T23:02:37;102403.19;;;0.39;100.00
19797;BME280;10058;57.654;12.044;2023-01-26T23:05:03;102405.66;;;0.37;100.00
19797;BME280;10058;57.654;12.044;2023-01-26T23:07:28;102407.19;;;0.35;100.00
19797;BME280;10058;57.654;12.044;2023-01-26T23:09:53;102397.09;;;0.38;100.00
19797;BME280;10058;57.654;12.044;2023-01-26T23:12:18;102396.53;;;0.32;100.00
19797;BME280;10058;57.654;12.044;2023-01-26T23:14:43;102397.44;;;0.32;100.00
19797;BME280;10058;57.654;12.044;2023-01-26T23:17:09;102400.75;;;0.40;100.00
19797;BME280;10058;57.654;12.044;2023-01-26T23:19:35;102400.47;;;0.37;100.00
19797;BME280;10058;57.654;12.044;2023-01-26T23:22:00;102391.03;;;0.29;100.00
19797;BME280;10058;57.654;12.044;2023-01-26T23:24:25;102395.00;;;0.34;100.00
19797;BME280;10058;57.654;12.044;2023-01-26T23:26:50;102404.41;;;0.42;100.00
19797;BME280;10058;57.654;12.044;2023-01-26T23:29:15;102403.19;;;0.39;100.00
19797;BME280;10058;57.654;12.044;2023-01-26T23:31:41;102407.28;;;0.18;100.00
19797;BME280;10058;57.654;12.044;2023-01-26T23:34:06;102393.88;;;0.41;100.00
19797;BME280;10058;57.654;12.044;2023-01-26T23:36:31;102404.88;;;0.38;100.00
19797;BME280;10058;57.654;12.044;2023-01-26T23:38:56;102404.88;;;0.38;100.00
19797;BME280;10058;57.654;12.044;2023-01-26T23:41:21;102407.41;;;0.28;100.00
19797;BME280;10058;57.654;12.044;2023-01-26T23:43:46;102406.66;;;0.29;100.00
19797;BME280;10058;57.654;12.044;2023-01-26T23:46:12;102406.44;;;0.09;100.00
19797;BME280;10058;57.654;12.044;2023-01-26T23:48:37;102407.66;;;0.12;100.00